Latest Weather Observations for Renmark Airport

IDS60801

Issued at 5:35 pm CST Saturday 19 April 2014 (issued every 30 minutes, with the page automatically refreshed every 10 minutes)

About weather observations | Map of weather stations | Latest weather observations for SA | Other Formats
Station Details ID: 024048 Name: RENMARK AERO Lat: -34.20 Lon: 140.68 Height: 31.5 m
Data from the previous 72 hours. | See also: Recent months at Renmark Airport
Date/Time
CST
Temp
°C
App
Temp
°C
Dew
Point
Rel
Hum
%
Delta-T
°C
Wind Press
QNH
hPa
Press
MSL
hPa
Rain
since 9 am
mm
Dir
 
Spd
km/h
Gust
km/h
Spd
kts
Gust
kts
19/05:30pm 16.8 14.0 3.1 40 6.3 ESE 7 9 4 5 1018.6 - 0.0
19/05:00pm 18.1 15.5 3.2 37 6.9 SSE 6 9 3 5 1018.6 - 0.0
19/04:30pm 18.6 15.8 2.9 35 7.3 NE 7 9 4 5 1018.6 - 0.0
19/04:00pm 18.8 16.5 2.6 34 7.5 SE 4 9 2 5 1018.7 - 0.0
19/03:30pm 19.0 15.8 2.8 34 7.5 E 9 15 5 8 1019.0 - 0.0
19/03:00pm 18.3 14.2 2.2 34 7.3 S 13 20 7 11 1019.3 1019.2 0.0
19/02:30pm 18.9 16.1 3.1 35 7.4 NW 7 13 4 7 1019.4 - 0.0
19/02:00pm 18.3 15.0 2.6 35 7.2 SW 9 13 5 7 1019.6 - 0.0
19/01:30pm 18.0 15.1 2.7 36 7.0 SSE 7 13 4 7 1019.9 - 0.0
19/01:00pm 17.7 14.1 2.8 37 6.8 SE 11 17 6 9 1020.5 - 0.0
19/12:30pm 17.8 14.6 2.9 37 6.9 N 9 13 5 7 1021.1 - 0.0
19/12:00pm 16.9 13.7 3.2 40 6.3 SSE 9 13 5 7 1021.9 1021.8 0.0
19/11:30am 16.1 13.3 3.2 42 5.9 SE 7 13 4 7 1022.5 - 0.0
19/11:00am 16.8 13.7 3.8 42 6.0 ENE 9 17 5 9 1022.9 - 0.0
19/10:30am 15.9 12.4 3.7 44 5.6 ESE 11 17 6 9 1023.2 - 0.0
19/10:00am 15.6 12.8 5.2 50 4.9 ENE 9 15 5 8 1023.5 - 0.0
19/09:30am 14.6 12.5 6.7 59 3.8 E 7 13 4 7 1023.8 - 0.0
19/09:00am 13.0 10.8 6.1 63 3.3 ESE 7 11 4 6 1023.8 1023.7 0.4
19/08:30am 11.3 10.0 6.0 70 2.5 S 2 7 1 4 1023.7 - 0.4
19/08:00am 8.5 6.8 6.0 84 1.1 WSW 4 7 2 4 1023.5 - 0.4
19/07:30am 5.7 4.0 5.7 100 0.0 SW 4 7 2 4 1023.2 - 0.4
19/07:00am 3.2 1.6 2.6 96 0.2 CALM 0 0 0 0 1022.7 - 0.4
19/06:30am 3.6 2.1 2.9 95 0.3 CALM 0 0 0 0 1022.6 - 0.4
19/06:00am 3.7 2.1 2.5 92 0.5 WSW 0 0 0 0 1022.5 1022.4 0.4
19/05:30am 4.8 3.3 3.1 89 0.7 CALM 0 0 0 0 1022.5 - 0.4
19/05:00am 5.5 4.1 3.3 86 0.9 CALM 0 0 0 0 1022.4 - 0.4
19/04:30am 7.3 6.1 4.8 84 1.1 CALM 0 0 0 0 1022.3 - 0.4
19/04:00am 7.9 6.8 5.0 82 1.3 CALM 0 0 0 0 1022.1 - 0.4
19/03:30am 8.8 6.4 5.2 78 1.6 S 7 11 4 6 1022.2 - 0.4
19/03:00am 9.3 5.8 5.3 76 1.8 S 13 17 7 9 1022.1 1022.0 0.4
19/02:30am 9.6 6.5 5.4 75 1.9 S 11 15 6 8 1022.3 - 0.4
19/02:00am 10.4 6.6 5.6 72 2.2 S 15 22 8 12 1022.4 - 0.4
19/01:30am 10.0 6.6 5.8 75 1.9 S 13 17 7 9 1022.4 - 0.4
19/01:00am 10.1 7.1 5.9 75 1.9 S 11 15 6 8 1022.5 - 0.4
19/12:30am 10.3 7.6 5.7 73 2.1 SSW 9 13 5 7 1022.5 - 0.4
19/12:00am 11.1 8.0 5.6 69 2.5 SSW 11 15 6 8 1022.5 1022.4 0.4
 
Date/Time
CST
Temp
°C
App
Temp
°C
Dew
Point
Rel
Hum
%
Delta-T
°C
Wind Press
QNH
hPa
Press
MSL
hPa
Rain
since 9 am
mm
Dir
 
Spd
km/h
Gust
km/h
Spd
kts
Gust
kts
18/11:30pm 11.5 7.6 5.4 66 2.8 SSW 15 20 8 11 1022.5 - 0.4
18/11:00pm 11.9 8.0 5.3 64 3.0 SSW 15 20 8 11 1022.4 - 0.4
18/10:30pm 12.4 8.5 5.3 62 3.3 S 15 22 8 12 1022.6 - 0.4
18/10:00pm 12.9 9.0 5.3 60 3.5 SSW 15 20 8 11 1022.7 - 0.4
18/09:30pm 13.2 8.9 5.1 58 3.8 SSW 17 22 9 12 1022.6 - 0.4
18/09:00pm 13.3 9.6 4.7 56 3.9 SSW 13 17 7 9 1022.5 1022.4 0.4
18/08:30pm 13.9 10.2 4.5 53 4.3 SSW 13 19 7 10 1022.4 - 0.4
18/08:00pm 14.4 10.3 4.4 51 4.6 SSW 15 22 8 12 1022.2 - 0.4
18/07:30pm 15.0 10.9 4.4 49 4.9 SSW 15 22 8 12 1022.1 - 0.4
18/07:00pm 15.5 10.9 3.9 46 5.4 SSW 17 22 9 12 1021.8 - 0.4
18/06:30pm 16.4 11.4 3.8 43 5.8 SSW 19 24 10 13 1021.5 - 0.4
18/06:00pm 17.1 12.5 3.8 41 6.2 SSW 17 22 9 12 1021.2 1021.1 0.4
18/05:30pm 18.4 13.4 3.8 38 6.9 SSW 19 28 10 15 1020.8 - 0.4
18/05:00pm 19.4 13.9 4.0 36 7.3 SSW 22 32 12 17 1020.3 - 0.4
18/04:30pm 20.2 14.9 5.1 37 7.4 SSW 22 33 12 18 1020.1 - 0.4
18/04:00pm 20.6 15.2 6.5 40 7.1 SW 24 33 13 18 1019.8 - 0.4
18/03:30pm 20.6 16.2 8.9 47 6.2 SSW 22 32 12 17 1019.6 - 0.4
18/03:00pm 19.3 17.9 13.5 69 3.3 SSW 13 20 7 11 1019.6 1019.5 0.4
18/02:30pm 16.7 16.6 16.1 96 0.4 SW 11 32 6 17 1019.8 - 0.4
18/02:14pm 16.8 13.1 15.0 89 1.0 SSW 28 46 15 25 1019.8 - 0.0
18/02:00pm 20.7 17.3 11.3 55 5.2 SW 20 28 11 15 1019.4 - 0.0
18/01:30pm 19.8 16.1 11.6 59 4.5 SSW 22 33 12 18 1019.7 - 0.0
18/01:00pm 19.9 16.0 10.9 56 4.9 SW 22 32 12 17 1019.7 - 0.0
18/12:30pm 20.8 17.2 12.0 57 4.9 SSW 22 30 12 16 1019.9 - 0.0
18/12:00pm 20.4 16.8 11.9 58 4.7 SW 22 33 12 18 1020.2 1020.1 0.0
18/11:30am 18.9 16.3 13.3 70 3.2 SW 19 30 10 16 1020.6 - 0.0
18/11:00am 19.4 14.9 12.7 65 3.8 SW 28 43 15 23 1020.7 - 0.0
18/10:30am 21.1 16.7 11.7 55 5.2 SW 26 39 14 21 1020.3 - 0.0
18/10:00am 20.6 16.1 11.5 56 5.0 SW 26 37 14 20 1020.4 - 0.0
18/09:30am 19.9 16.6 11.7 59 4.5 SW 20 26 11 14 1020.4 - 0.0
18/09:00am 18.7 15.7 11.8 64 3.8 WSW 19 26 10 14 1020.4 1020.3 0.0
18/08:30am 17.8 14.9 12.3 70 3.0 SW 19 24 10 13 1020.3 - 0.0
18/08:00am 15.7 13.9 12.1 79 2.0 W 13 20 7 11 1020.1 - 0.0
18/07:30am 13.9 12.3 11.6 86 1.2 W 11 13 6 7 1019.9 - 0.0
18/07:00am 12.4 10.7 11.3 93 0.6 W 11 15 6 8 1019.4 - 0.0
18/06:30am 12.0 10.2 10.9 93 0.6 W 11 15 6 8 1019.2 - 0.0
18/06:00am 12.0 9.6 10.2 89 0.9 W 13 15 7 8 1019.1 1019.0 0.0
18/05:30am 11.6 9.4 9.2 85 1.2 W 11 13 6 7 1019.0 - 0.0
18/05:00am 12.3 10.3 8.6 78 1.8 W 9 11 5 6 1018.6 - 0.0
18/04:30am 12.8 10.8 8.5 75 2.1 W 9 11 5 6 1018.6 - 0.0
18/04:00am 12.6 9.7 8.1 74 2.2 WSW 13 17 7 9 1018.4 - 0.0
18/03:30am 12.5 10.7 7.8 73 2.3 W 7 9 4 5 1018.1 - 0.0
18/03:00am 13.1 10.9 8.0 71 2.5 WSW 9 11 5 6 1018.2 1018.1 0.0
18/02:30am 13.2 11.4 8.1 71 2.5 WSW 7 9 4 5 1018.3 - 0.0
18/02:00am 13.1 11.0 8.4 73 2.3 W 9 11 5 6 1018.5 - 0.0
18/01:30am 12.1 10.4 8.4 78 1.8 SW 7 9 4 5 1018.6 - 0.0
18/01:00am 11.9 10.7 8.2 78 1.8 WNW 4 7 2 4 1018.8 - 0.0
18/12:30am 11.3 9.5 7.8 79 1.7 N 7 9 4 5 1018.7 - 0.0
18/12:00am 11.3 9.6 7.6 78 1.8 N 6 6 3 3 1018.8 1018.7 0.0
 
Date/Time
CST
Temp
°C
App
Temp
°C
Dew
Point
Rel
Hum
%
Delta-T
°C
Wind Press
QNH
hPa
Press
MSL
hPa
Rain
since 9 am
mm
Dir
 
Spd
km/h
Gust
km/h
Spd
kts
Gust
kts
17/11:30pm 11.6 11.1 7.9 78 1.8 CALM 0 2 0 1 1019.1 - 0.0
17/11:00pm 11.7 11.2 7.8 77 1.9 CALM 0 0 0 0 1019.4 - 0.0
17/10:30pm 12.4 11.9 7.9 74 2.2 CALM 0 6 0 3 1019.7 - 0.0
17/10:00pm 13.0 12.6 8.3 73 2.3 CALM 0 0 0 0 1019.8 - 0.0
17/09:30pm 13.1 12.5 7.5 69 2.7 CALM 0 0 0 0 1019.9 - 0.0
17/09:00pm 13.5 13.0 7.9 69 2.8 CALM 0 0 0 0 1020.0 1019.9 0.0
17/08:30pm 14.0 13.5 7.8 66 3.1 CALM 0 0 0 0 1019.9 - 0.0
17/08:00pm 14.5 13.9 7.5 63 3.5 CALM 0 0 0 0 1019.8 - 0.0
17/07:30pm 15.1 14.6 7.9 62 3.6 CALM 0 0 0 0 1019.6 - 0.0
17/07:00pm 16.1 14.8 7.6 57 4.3 WSW 4 6 2 3 1019.6 - 0.0
17/06:30pm 17.8 16.1 7.5 51 5.2 W 6 7 3 4 1019.3 - 0.0
17/06:00pm 20.5 18.6 7.5 43 6.7 SW 7 9 4 5 1019.0 1018.9 0.0
17/05:30pm 22.1 19.3 7.1 38 7.7 WSW 11 13 6 7 1018.9 - 0.0
17/05:00pm 23.5 19.8 6.3 33 8.8 WSW 15 20 8 11 1018.6 - 0.0
17/04:30pm 24.1 20.1 6.8 33 9.0 SW 17 22 9 12 1018.6 - 0.0
17/04:00pm 24.7 20.6 6.4 31 9.5 WSW 17 22 9 12 1018.7 - 0.0
17/03:30pm 24.6 20.1 6.8 32 9.3 SW 20 28 11 15 1018.8 - 0.0
17/03:00pm 24.9 20.2 6.1 30 9.7 SW 20 30 11 16 1018.9 1018.8 0.0
17/02:30pm 24.7 21.5 6.9 32 9.3 WSW 13 26 7 14 1019.2 - 0.0
17/02:00pm 24.4 21.3 7.1 33 9.0 WSW 13 22 7 12 1019.6 - 0.0
17/01:30pm 24.5 20.9 6.7 32 9.2 W 15 24 8 13 1019.8 - 0.0
17/01:00pm 23.7 19.7 6.5 33 8.9 WSW 17 28 9 15 1020.1 - 0.0
17/12:30pm 23.8 20.3 7.0 34 8.7 WNW 15 22 8 12 1020.7 - 0.0
17/12:00pm 22.3 20.3 7.3 38 7.7 NNE 7 15 4 8 1021.0 1020.9 0.0
17/11:30am 22.6 20.8 8.0 39 7.7 N 7 13 4 7 1021.5 - 0.0
17/11:00am 21.4 19.1 7.6 41 7.1 SSE 9 13 5 7 1021.7 - 0.0
17/10:30am 21.1 20.0 8.4 44 6.7 ENE 4 11 2 6 1021.7 - 0.0
17/10:00am 20.1 18.3 7.8 45 6.3 S 7 11 4 6 1021.8 - 0.0
17/09:30am 19.5 17.7 7.9 47 6.0 S 7 11 4 6 1022.1 - 0.0
17/09:00am 18.4 17.1 9.2 55 4.8 E 6 7 3 4 1022.0 1021.9 0.0
17/08:30am 16.6 16.2 9.8 64 3.6 S 2 6 1 3 1022.0 - 0.0
17/08:00am 13.6 12.9 10.0 79 1.9 SW 4 7 2 4 1021.8 - 0.0
17/07:30am 10.0 8.7 10.0 100 0.0 WSW 7 7 4 4 1021.5 - 0.0
17/07:00am 7.4 5.7 7.4 100 0.0 W 6 7 3 4 1021.2 - 0.0
17/06:30am 6.9 4.8 6.6 98 0.1 W 7 9 4 5 1020.9 - 0.0
17/06:00am 7.2 5.2 6.9 98 0.1 WSW 7 9 4 5 1020.6 1020.5 0.0
17/05:30am 7.6 5.9 7.5 99 0.0 WSW 6 7 3 4 1020.1 - 0.0
17/05:00am 7.7 7.0 7.0 95 0.3 CALM 0 0 0 0 1020.0 - 0.0
17/04:30am 8.4 7.8 7.2 92 0.6 CALM 0 0 0 0 1019.9 - 0.0
17/04:00am 8.6 8.0 7.2 91 0.7 CALM 0 0 0 0 1019.8 - 0.0
17/03:30am 8.7 8.1 7.3 91 0.7 CALM 0 0 0 0 1019.6 - 0.0
17/03:00am 9.7 9.1 7.6 87 1.0 CALM 0 0 0 0 1019.5 1019.4 0.0
17/02:30am 10.3 9.8 7.7 84 1.3 CALM 0 0 0 0 1019.6 - 0.0
17/02:00am 10.5 8.9 7.9 84 1.3 SSW 6 6 3 3 1019.6 - 0.0
17/01:30am 10.9 9.3 7.8 81 1.5 S 6 7 3 4 1019.8 - 0.0
17/01:00am 11.4 10.2 8.1 80 1.6 SW 4 6 2 3 1019.9 - 0.0
17/12:30am 11.9 10.3 7.8 76 2.0 WSW 6 7 3 4 1019.9 - 0.0
17/12:00am 12.5 11.3 8.0 74 2.2 SW 4 6 2 3 1019.8 1019.7 0.0
 
Date/Time
CST
Temp
°C
App
Temp
°C
Dew
Point
Rel
Hum
%
Delta-T
°C
Wind Press
QNH
hPa
Press
MSL
hPa
Rain
since 9 am
mm
Dir
 
Spd
km/h
Gust
km/h
Spd
kts
Gust
kts
16/11:30pm 13.1 11.0 8.2 72 2.4 SW 9 11 5 6 1019.9 - 0.0
16/11:00pm 14.1 12.4 8.5 69 2.8 WSW 7 7 4 4 1019.9 - 0.0
16/10:30pm 14.3 14.0 8.5 68 2.9 CALM 0 0 0 0 1020.0 - 0.0
16/10:00pm 14.0 13.6 8.4 69 2.8 CALM 0 0 0 0 1020.1 - 0.0
16/09:30pm 13.7 13.2 7.9 68 2.9 CALM 0 0 0 0 1020.0 - 0.0
16/09:00pm 13.4 12.1 7.8 69 2.8 W 4 6 2 3 1019.8 1019.7 0.0
16/08:30pm 13.4 12.9 7.8 69 2.8 CALM 0 0 0 0 1019.6 - 0.0
16/08:00pm 14.0 13.4 7.3 64 3.3 CALM 0 0 0 0 1019.5 - 0.0
16/07:30pm 14.5 13.9 7.3 62 3.5 CALM 0 0 0 0 1019.4 - 0.0
16/07:00pm 15.9 15.2 6.9 55 4.4 CALM 0 0 0 0 1019.3 - 0.0
16/06:30pm 18.0 17.5 7.7 51 5.2 CALM 0 0 0 0 1019.1 - 0.0
16/06:00pm 19.3 18.6 7.1 45 6.2 CALM 0 6 0 3 1019.0 1018.9 0.0

Other Formats:

Comma delimited format used in spreadsheet applications
http://www.bom.gov.au/fwo/IDS60801/IDS60801.95687.axf

JavaScript Object Notation format (JSON) in row-major order
http://www.bom.gov.au/fwo/IDS60801/IDS60801.95687.json